Аэропорт: Витязево. Анапа

ICAO: URKA

METAR:
2021-04-21 19:30:00
URKA 211930Z AUTO 20003MPS 6000 NCD 06/04 Q1020 RMK QFE761/1015
METAR:
2021-04-21 16:53:00
TAF URKA 211653Z 2118/2218 22003G08MPS 3100 BR SCT011 BKN016 TEMPO 2118/2218 0300 FG OVC002